Time;durP1;ratioP1;P1;durP2;ratioP2;P2;SDS_P1;SDS_P2;PMS_P1;PMS_P2;Temp;Humidity;BMP_temperature;BMP_pressure;BME280_temperature;BME280_humidity;BME280_pressure;Samples;Min_cycle;Max_cycle;Signal;HPM_P1;HPM_P2
2022/06/30 00:00:42;;;;;;;6.28;3.20;;;21.60;99.90;;;;;;5075467;28;20107;-66
2022/06/30 00:03:07;;;;;;;5.75;3.17;;;21.60;99.90;;;;;;5093654;28;20472;-66
2022/06/30 00:05:33;;;;;;;3.78;3.20;;;21.60;99.90;;;;;;5093298;28;20066;-65
2022/06/30 00:07:59;;;;;;;5.25;2.90;;;21.50;99.90;;;;;;5093526;28;20020;-64
2022/06/30 00:10:25;;;;;;;5.35;2.92;;;21.50;99.90;;;;;;5093585;28;20031;-65
2022/06/30 00:12:50;;;;;;;6.40;3.13;;;21.50;99.90;;;;;;5075279;28;20027;-64
2022/06/30 00:15:16;;;;;;;5.38;3.13;;;21.50;99.90;;;;;;5093446;28;20434;-65
2022/06/30 00:17:41;;;;;;;4.70;3.28;;;21.50;99.90;;;;;;5093134;28;20078;-65
2022/06/30 00:20:08;;;;;;;6.80;3.30;;;21.40;99.90;;;;;;5075250;28;20024;-66
2022/06/30 00:22:33;;;;;;;6.70;3.38;;;21.50;99.90;;;;;;5075058;28;20050;-66
2022/06/30 00:24:59;;;;;;;5.03;2.83;;;21.40;99.90;;;;;;5093695;28;20028;-66
2022/06/30 00:27:25;;;;;;;5.10;2.75;;;21.40;99.90;;;;;;5093178;28;20031;-65
2022/06/30 00:29:50;;;;;;;5.55;3.28;;;21.40;99.90;;;;;;5093114;28;20020;-65
2022/06/30 00:32:16;;;;;;;7.40;3.20;;;21.40;99.90;;;;;;5093774;28;20041;-66
2022/06/30 00:34:41;;;;;;;4.30;3.13;;;21.40;99.90;;;;;;5093397;28;20107;-64
2022/06/30 00:37:07;;;;;;;3.53;2.83;;;21.30;99.90;;;;;;5093797;28;20492;-67
2022/06/30 00:39:33;;;;;;;4.15;2.90;;;21.30;99.90;;;;;;5078859;28;20024;-65
2022/06/30 00:41:58;;;;;;;16.00;3.38;;;21.30;99.90;;;;;;5100878;28;20024;-66
2022/06/30 00:44:24;;;;;;;6.38;2.90;;;21.30;99.90;;;;;;5099518;28;20150;-67
2022/06/30 00:46:50;;;;;;;4.28;3.20;;;21.30;99.90;;;;;;5098682;28;20115;-66
2022/06/30 00:49:17;;;;;;;7.07;3.67;;;21.30;99.90;;;;;;5098471;28;20026;-67
2022/06/30 00:51:43;;;;;;;5.07;3.47;;;21.20;99.90;;;;;;5096877;28;20063;-68
2022/06/30 00:54:11;;;;;;;5.03;3.70;;;21.20;99.90;;;;;;5096869;28;20043;-66
2022/06/30 00:56:41;;;;;;;5.97;3.40;;;21.20;99.90;;;;;;5096658;28;20032;-66
2022/06/30 00:59:08;;;;;;;5.45;3.05;;;21.10;99.90;;;;;;5078913;28;20035;-65
2022/06/30 01:01:36;;;;;;;7.75;3.30;;;21.10;99.90;;;;;;5096570;28;20031;-65
2022/06/30 01:04:01;;;;;;;5.03;3.15;;;21.10;99.90;;;;;;5096376;28;20024;-65
2022/06/30 01:06:28;;;;;;;4.72;3.22;;;21.10;99.90;;;;;;5096505;28;20054;-65
2022/06/30 01:08:54;;;;;;;3.97;3.05;;;21.00;99.90;;;;;;5096487;28;20028;-65
2022/06/30 01:14:18;;;;;;;5.75;2.90;;;21.00;99.90;;;;;;5051623;28;20152;-68
2022/06/30 01:16:44;;;;;;;6.20;3.47;;;21.00;99.90;;;;;;5096283;28;20503;-66
2022/06/30 01:19:11;;;;;;;3.88;2.80;;;21.00;99.90;;;;;;5096231;28;20056;-65
2022/06/30 01:21:37;;;;;;;5.70;3.75;;;20.90;99.90;;;;;;5096293;28;20032;-65
2022/06/30 01:24:03;;;;;;;7.63;4.03;;;20.90;99.90;;;;;;5078351;28;20035;-65
2022/06/30 01:26:28;;;;;;;4.47;3.10;;;20.90;99.90;;;;;;5096119;28;20028;-66
2022/06/30 01:28:54;;;;;;;5.20;3.13;;;20.80;99.90;;;;;;5096336;28;20030;-66
2022/06/30 01:31:20;;;;;;;6.93;3.40;;;20.80;99.90;;;;;;5096415;28;20020;-66
2022/06/30 01:33:45;;;;;;;6.85;3.28;;;20.80;99.90;;;;;;5096193;28;20556;-66
2022/06/30 01:36:11;;;;;;;4.97;3.55;;;20.80;99.90;;;;;;5095911;28;20036;-66
2022/06/30 01:38:37;;;;;;;7.70;3.67;;;20.80;99.90;;;;;;5077709;28;20070;-66
2022/06/30 01:41:03;;;;;;;7.55;3.35;;;20.80;99.90;;;;;;5095839;28;20081;-66
2022/06/30 01:43:28;;;;;;;6.97;4.13;;;20.80;99.90;;;;;;5095855;28;20145;-65
2022/06/30 01:45:54;;;;;;;4.30;3.78;;;20.80;99.90;;;;;;5095798;28;20036;-64
2022/06/30 01:48:20;;;;;;;6.13;3.88;;;20.80;99.90;;;;;;5095922;28;20073;-65
2022/06/30 01:50:45;;;;;;;7.90;3.78;;;20.70;99.90;;;;;;5095093;28;20448;-64
2022/06/30 01:53:11;;;;;;;6.35;3.60;;;20.70;99.90;;;;;;5098283;28;20450;-66
2022/06/30 01:55:37;;;;;;;4.32;3.38;;;20.60;99.90;;;;;;5099100;28;20032;-66
2022/06/30 01:58:03;;;;;;;5.50;3.60;;;20.60;99.90;;;;;;5080983;28;20503;-66
2022/06/30 02:00:29;;;;;;;5.20;3.78;;;20.60;99.90;;;;;;5095772;28;20396;-66
2022/06/30 02:02:56;;;;;;;7.07;3.88;;;20.60;99.90;;;;;;5095884;28;20031;-68
2022/06/30 02:05:22;;;;;;;6.50;3.80;;;20.50;99.90;;;;;;5096046;28;20024;-66
2022/06/30 02:07:48;;;;;;;7.32;3.90;;;20.50;99.90;;;;;;5095801;28;20032;-65
2022/06/30 02:10:19;;;;;;;5.45;3.65;;;20.50;99.90;;;;;;5095528;28;20044;-66
2022/06/30 02:12:45;;;;;;;7.22;3.80;;;20.50;99.90;;;;;;5095550;28;20028;-66
2022/06/30 02:15:15;;;;;;;4.45;3.42;;;20.40;99.90;;;;;;5095129;28;20476;-66
2022/06/30 02:17:42;;;;;;;5.35;3.35;;;20.40;99.90;;;;;;5095474;28;20027;-65
2022/06/30 02:20:09;;;;;;;3.72;3.20;;;20.30;99.90;;;;;;5095363;28;20024;-66
2022/06/30 02:22:39;;;;;;;5.75;3.95;;;20.40;99.90;;;;;;5095101;28;20021;-66
2022/06/30 02:25:06;;;;;;;5.47;3.75;;;20.30;99.90;;;;;;5094866;28;20465;-66
2022/06/30 02:27:32;;;;;;;4.22;3.75;;;20.30;99.90;;;;;;5095084;28;20103;-65
2022/06/30 02:29:57;;;;;;;9.88;3.88;;;20.30;99.90;;;;;;5094935;28;20056;-65
2022/06/30 02:32:23;;;;;;;9.63;3.63;;;20.30;99.90;;;;;;5095321;28;20077;-65
2022/06/30 02:34:50;;;;;;;4.75;3.40;;;20.40;99.90;;;;;;5094805;28;20073;-65
2022/06/30 02:37:16;;;;;;;8.38;3.50;;;20.30;99.90;;;;;;5094653;28;20020;-65
2022/06/30 02:39:42;;;;;;;6.90;4.20;;;20.30;99.90;;;;;;5076717;28;20024;-65
2022/06/30 02:42:08;;;;;;;9.30;3.97;;;20.20;99.90;;;;;;5094824;28;20385;-65
2022/06/30 02:44:33;;;;;;;4.53;3.33;;;20.20;99.90;;;;;;5094810;28;20020;-66
2022/06/30 02:46:59;;;;;;;4.88;3.95;;;20.20;99.90;;;;;;5095065;28;20428;-66
2022/06/30 02:49:25;;;;;;;8.10;4.35;;;20.20;99.90;;;;;;5094673;28;20511;-66
2022/06/30 02:51:50;;;;;;;5.57;3.90;;;20.20;99.90;;;;;;5094408;28;20433;-65
2022/06/30 02:54:16;;;;;;;6.43;4.00;;;20.10;99.90;;;;;;5094506;28;20028;-65
2022/06/30 02:56:42;;;;;;;;;;;20.20;99.90;;;;;;5076623;28;20020;-65
2022/06/30 02:59:08;;;;;;;5.20;3.70;;;20.10;99.90;;;;;;5076374;28;20345;-65
2022/06/30 03:01:34;;;;;;;5.95;3.90;;;20.00;99.90;;;;;;5076143;28;20024;-65
2022/06/30 03:04:01;;;;;;;10.93;4.40;;;20.00;99.90;;;;;;5094205;28;20495;-65
2022/06/30 03:06:28;;;;;;;5.97;3.60;;;20.00;99.90;;;;;;5093966;28;20081;-65
2022/06/30 03:08:55;;;;;;;8.18;3.53;;;19.90;99.90;;;;;;5094101;28;20024;-65
2022/06/30 03:11:21;;;;;;;4.72;3.83;;;20.00;99.90;;;;;;5094504;28;20103;-65
2022/06/30 03:13:47;;;;;;;5.72;4.20;;;19.90;99.90;;;;;;5075901;28;20035;-65
2022/06/30 03:16:13;;;;;;;5.30;3.38;;;19.80;99.90;;;;;;5099620;28;20506;-65
2022/06/30 03:18:39;;;;;;;7.53;3.53;;;19.70;99.90;;;;;;5099637;28;20028;-65
2022/06/30 03:21:05;;;;;;;8.02;3.92;;;19.70;99.90;;;;;;5080250;28;20031;-65
2022/06/30 03:23:31;;;;;;;6.45;3.92;;;19.70;99.90;;;;;;5099390;28;20111;-65
2022/06/30 03:25:57;;;;;;;4.70;3.70;;;19.70;99.90;;;;;;5077090;28;20056;-66
2022/06/30 03:28:23;;;;;;;7.57;4.18;;;19.70;99.90;;;;;;5094505;28;20038;-65
2022/06/30 03:30:48;;;;;;;4.05;3.50;;;19.70;99.90;;;;;;5093912;28;20028;-65
2022/06/30 03:33:15;;;;;;;4.35;3.60;;;19.70;99.90;;;;;;5093823;28;20106;-65
2022/06/30 03:35:40;;;;;;;;;;;19.70;99.90;;;;;;5094211;28;20078;-65
2022/06/30 03:38:06;;;;;;;4.00;3.60;;;19.70;99.90;;;;;;5093624;28;19912;-65
2022/06/30 03:40:32;;;;;;;4.65;3.70;;;19.70;99.90;;;;;;5093840;28;20388;-65
2022/06/30 03:42:58;;;;;;;4.53;3.88;;;19.70;99.90;;;;;;5093917;28;20111;-65
2022/06/30 03:45:23;;;;;;;5.40;3.58;;;19.70;99.90;;;;;;5093898;28;20023;-65
2022/06/30 03:47:49;;;;;;;6.18;4.22;;;19.70;99.90;;;;;;5093870;28;20028;-64
2022/06/30 03:50:14;;;;;;;7.25;3.97;;;19.60;99.90;;;;;;5093753;28;20058;-65
2022/06/30 03:52:40;;;;;;;5.72;3.97;;;19.70;99.90;;;;;;5093690;28;20047;-65
2022/06/30 03:55:06;;;;;;;5.25;4.25;;;19.70;99.90;;;;;;5093404;28;20024;-65
2022/06/30 03:57:31;;;;;;;5.75;3.72;;;19.60;99.90;;;;;;5093200;28;20102;-65
2022/06/30 03:59:57;;;;;;;5.53;3.83;;;19.70;99.90;;;;;;5093370;28;20424;-65
2022/06/30 04:02:22;;;;;;;8.40;4.97;;;19.70;99.90;;;;;;5093247;28;20032;-65
2022/06/30 04:04:48;;;;;;;6.57;4.25;;;19.70;99.90;;;;;;5093327;28;20050;-65
2022/06/30 04:07:13;;;;;;;4.70;3.65;;;19.70;99.90;;;;;;5093106;28;20047;-65
2022/06/30 04:09:39;;;;;;;4.25;3.83;;;19.70;99.90;;;;;;5093309;28;20035;-65
2022/06/30 04:12:05;;;;;;;6.70;3.92;;;19.70;99.90;;;;;;5093307;28;20083;-66
2022/06/30 04:14:31;;;;;;;4.43;3.17;;;19.70;99.90;;;;;;5097414;28;20028;-65
2022/06/30 04:16:56;;;;;;;4.97;3.20;;;19.70;99.90;;;;;;5082406;28;20123;-65
2022/06/30 04:19:22;;;;;;;4.57;3.35;;;19.60;99.90;;;;;;5100125;28;20099;-64
2022/06/30 04:21:48;;;;;;;;;;;19.70;99.90;;;;;;5101072;28;20409;-64
2022/06/30 04:24:14;;;;;;;6.40;3.50;;;19.70;99.90;;;;;;5100184;28;19946;-65
2022/06/30 04:26:39;;;;;;;3.78;3.10;;;20.00;99.90;;;;;;5100540;28;20056;-65
2022/06/30 04:29:05;;;;;;;6.10;3.72;;;20.00;99.90;;;;;;5081753;28;20141;-65
2022/06/30 04:34:15;;;;;;;7.70;3.50;;;19.90;99.90;;;;;;5100366;28;20039;-65
2022/06/30 04:36:40;;;;;;;6.68;3.80;;;20.00;99.90;;;;;;5099661;28;20024;-64
2022/06/30 04:39:06;;;;;;;5.97;4.05;;;19.90;99.90;;;;;;5099775;28;20034;-64
2022/06/30 04:41:31;;;;;;;5.53;3.30;;;20.00;99.90;;;;;;5099964;28;20387;-65
2022/06/30 04:43:59;;;;;;;7.35;3.90;;;19.90;99.90;;;;;;5100105;28;20531;-65
2022/06/30 04:46:25;;;;;;;5.07;3.70;;;19.90;99.90;;;;;;5081736;28;20369;-65
2022/06/30 04:48:51;;;;;;;4.82;3.47;;;20.00;99.90;;;;;;5099774;28;20027;-64
2022/06/30 04:51:17;;;;;;;6.95;3.50;;;20.00;99.90;;;;;;5100059;28;20036;-64
2022/06/30 04:53:43;;;;;;;5.32;3.40;;;20.00;99.90;;;;;;5100152;28;20026;-64
2022/06/30 04:56:09;;;;;;;7.55;3.97;;;20.10;99.90;;;;;;5099370;28;20054;-65
2022/06/30 04:58:36;;;;;;;5.97;3.75;;;20.10;99.90;;;;;;5099601;28;20064;-64
2022/06/30 05:01:02;;;;;;;5.28;3.53;;;20.20;99.90;;;;;;5099415;28;20480;-65
2022/06/30 05:03:28;;;;;;;7.43;3.88;;;20.20;99.90;;;;;;5099389;28;20026;-63
2022/06/30 05:05:54;;;;;;;7.43;4.15;;;20.30;99.90;;;;;;5099570;28;20032;-64
2022/06/30 05:08:20;;;;;;;9.45;4.20;;;20.30;99.90;;;;;;5100294;28;20055;-64
2022/06/30 05:10:46;;;;;;;5.40;3.88;;;20.50;99.90;;;;;;5100280;28;20119;-64
2022/06/30 05:13:11;;;;;;;6.68;3.63;;;20.50;99.90;;;;;;5099854;28;20071;-64
2022/06/30 05:15:37;;;;;;;6.65;3.58;;;20.50;99.90;;;;;;5099340;28;20033;-66
2022/06/30 05:18:03;;;;;;;6.82;3.75;;;20.60;99.90;;;;;;5099505;28;20060;-68
2022/06/30 05:20:29;;;;;;;6.40;4.28;;;20.80;99.90;;;;;;5081038;28;20126;-67
2022/06/30 05:22:54;;;;;;;4.70;3.38;;;20.90;99.90;;;;;;5099549;28;20069;-68
2022/06/30 05:28:04;;;;;;;5.78;3.25;;;21.00;99.90;;;;;;5097012;28;20377;-68
2022/06/30 05:30:30;;;;;;;6.70;3.58;;;21.10;99.90;;;;;;5096399;28;20024;-68
2022/06/30 05:32:55;;;;;;;6.35;3.17;;;21.00;99.90;;;;;;5096156;28;20034;-68
2022/06/30 05:35:21;;;;;;;11.98;4.18;;;21.00;99.90;;;;;;5077828;28;20039;-67
2022/06/30 05:37:47;;;;;;;7.22;3.63;;;21.00;99.90;;;;;;5077964;28;20496;-66
2022/06/30 05:40:12;;;;;;;11.13;3.63;;;21.10;99.90;;;;;;5095995;28;20053;-66
2022/06/30 05:42:38;;;;;;;7.22;3.75;;;21.10;99.90;;;;;;5077930;28;20073;-66
2022/06/30 05:45:04;;;;;;;4.90;4.07;;;21.10;99.90;;;;;;5096214;28;20020;-67
2022/06/30 05:47:30;;;;;;;5.78;3.22;;;21.20;99.90;;;;;;5096908;28;20460;-67
2022/06/30 05:49:56;;;;;;;6.18;3.45;;;21.30;99.90;;;;;;5096079;28;20051;-66
2022/06/30 05:52:22;;;;;;;5.45;3.30;;;21.30;99.90;;;;;;5077707;28;20032;-66
2022/06/30 05:54:47;;;;;;;5.45;3.78;;;21.30;99.90;;;;;;5096434;28;20028;-65
2022/06/30 05:57:13;;;;;;;11.18;4.75;;;21.40;99.90;;;;;;5095587;28;20032;-66
2022/06/30 05:59:39;;;;;;;5.28;3.20;;;21.50;99.90;;;;;;5095722;28;20365;-67
2022/06/30 06:02:04;;;;;;;5.40;3.45;;;21.50;99.90;;;;;;5095426;28;20414;-67
2022/06/30 06:04:30;;;;;;;5.35;3.35;;;21.60;99.90;;;;;;5095712;28;20380;-67
2022/06/30 06:06:55;;;;;;;4.22;3.55;;;21.60;99.90;;;;;;5095026;28;20028;-66
2022/06/30 06:09:21;;;;;;;6.95;3.58;;;21.60;99.90;;;;;;5095577;28;20024;-66
2022/06/30 06:11:47;;;;;;;4.65;3.30;;;21.60;99.90;;;;;;5095062;28;20032;-66
2022/06/30 06:14:13;;;;;;;5.00;3.40;;;21.60;99.90;;;;;;5077331;28;20066;-66
2022/06/30 06:16:38;;;;;;;4.75;3.17;;;21.70;99.90;;;;;;5095127;28;20020;-66
2022/06/30 06:19:04;;;;;;;5.78;3.67;;;21.70;99.90;;;;;;5076861;28;20393;-67
2022/06/30 06:21:30;;;;;;;;;;;21.90;99.90;;;;;;5095529;28;20491;-66
2022/06/30 06:23:55;;;;;;;5.78;3.40;;;22.00;99.90;;;;;;5094913;28;19976;-66
2022/06/30 06:26:21;;;;;;;6.28;3.83;;;22.00;99.90;;;;;;5076805;28;20213;-67
2022/06/30 06:29:05;;;;;;;6.05;3.72;;;22.10;99.90;;;;;;5094970;28;20066;-66
2022/06/30 06:31:32;;;;;;;12.85;5.22;;;22.20;99.90;;;;;;5081350;28;20168;-67
2022/06/30 06:33:57;;;;;;;7.32;3.90;;;22.30;99.90;;;;;;5098838;28;20028;-66
2022/06/30 06:36:23;;;;;;;6.05;3.47;;;22.30;99.90;;;;;;5094460;28;20031;-67
2022/06/30 06:38:48;;;;;;;;;;;22.50;99.90;;;;;;5095684;28;20496;-66
2022/06/30 06:41:15;;;;;;;6.28;3.33;;;22.60;99.90;;;;;;5094863;28;19974;-66
2022/06/30 06:43:40;;;;;;;3.97;3.10;;;22.70;99.90;;;;;;5094477;28;20483;-66
2022/06/30 06:46:06;;;;;;;6.30;2.75;;;22.70;99.90;;;;;;5076173;28;20016;-66
2022/06/30 06:48:32;;;;;;;3.63;2.53;;;22.80;99.90;;;;;;5094593;28;20024;-66
2022/06/30 06:50:57;;;;;;;;;;;22.80;99.90;;;;;;5076962;28;20036;-66
2022/06/30 06:53:23;;;;;;;7.65;2.92;;;22.90;99.90;;;;;;5094706;28;19911;-67
2022/06/30 06:55:48;;;;;;;;;;;23.00;99.90;;;;;;5094844;28;20057;-66
2022/06/30 06:58:14;;;;;;;4.78;2.83;;;23.10;99.90;;;;;;5094879;28;20276;-66
2022/06/30 07:00:40;;;;;;;5.65;2.70;;;23.20;99.90;;;;;;5094658;28;20012;-67
2022/06/30 07:03:05;;;;;;;3.58;2.88;;;23.30;99.90;;;;;;5075981;28;20035;-67
2022/06/30 07:05:31;;;;;;;;;;;23.30;99.90;;;;;;5094376;28;20024;-66
2022/06/30 07:07:58;;;;;;;5.55;2.60;;;23.50;99.90;;;;;;5094810;28;19908;-66
2022/06/30 07:10:24;;;;;;;7.10;2.28;;;23.60;99.90;;;;;;5094888;28;20024;-67
2022/06/30 07:12:50;;;;;;;2.88;2.20;;;23.70;99.90;;;;;;5094169;28;20043;-67
2022/06/30 07:15:16;;;;;;;9.80;3.80;;;23.70;99.90;;;;;;5094210;28;20040;-66
2022/06/30 07:17:42;;;;;;;;;;;23.70;99.90;;;;;;5094740;28;20609;-66
2022/06/30 07:20:08;;;;;;;6.28;2.72;;;23.70;99.90;;;;;;5093982;28;20375;-66
2022/06/30 07:22:34;;;;;;;4.78;2.20;;;23.80;99.90;;;;;;5094208;28;20074;-66
2022/06/30 07:24:59;;;;;;;;;;;23.80;99.90;;;;;;5080534;28;20354;-67
2022/06/30 07:27:25;;;;;;;5.30;2.67;;;23.90;99.90;;;;;;5084774;28;19926;-66
2022/06/30 07:29:51;;;;;;;;;;;24.00;99.90;;;;;;5104112;28;20482;-66
2022/06/30 07:32:16;;;;;;;3.53;2.17;;;24.00;99.90;;;;;;5104458;28;20401;-66
2022/06/30 07:34:42;;;;;;;;;;;24.10;99.90;;;;;;5105624;28;20038;-67
2022/06/30 07:37:07;;;;;;;4.20;2.40;;;24.20;99.90;;;;;;5084261;28;19948;-67
2022/06/30 07:39:33;;;;;;;;;;;24.30;99.90;;;;;;5101731;28;20024;-66
2022/06/30 07:41:58;;;;;;;6.38;2.60;;;24.60;99.90;;;;;;5081334;28;19904;-66
2022/06/30 07:44:24;;;;;;;;;;;24.90;99.90;;;;;;5098714;28;20088;-66
2022/06/30 07:46:49;;;;;;;2.75;2.15;;;25.10;99.90;;;;;;5097151;28;19904;-67
2022/06/30 07:49:15;;;;;;;;;;;26.00;99.90;;;;;;5095443;28;20023;-67
2022/06/30 07:51:40;;;;;;;5.82;2.08;;;27.80;98.40;;;;;;5095619;28;19957;-67
2022/06/30 07:54:06;;;;;;;3.35;2.00;;;29.70;95.90;;;;;;5094370;28;20027;-67
2022/06/30 07:56:32;;;;;;;3.47;2.10;;;30.70;93.70;;;;;;5093957;28;20047;-68
2022/06/30 07:58:58;;;;;;;5.50;1.80;;;30.80;92.20;;;;;;5093955;28;20082;-67
2022/06/30 08:01:24;;;;;;;5.38;2.10;;;30.30;91.60;;;;;;5093577;28;20026;-67
2022/06/30 08:03:50;;;;;;;3.67;1.80;;;30.10;92.50;;;;;;5093847;28;20020;-66
2022/06/30 08:06:15;;;;;;;4.60;1.73;;;29.70;91.80;;;;;;5094155;28;20119;-67
2022/06/30 08:08:41;;;;;;;2.28;1.67;;;29.50;92.00;;;;;;5093411;28;20048;-67
2022/06/30 08:11:08;;;;;;;4.07;2.17;;;29.90;92.10;;;;;;5095034;28;20035;-68
2022/06/30 08:13:35;;;;;;;3.35;1.60;;;31.60;91.00;;;;;;5095060;28;20024;-67
2022/06/30 08:16:00;;;;;;;3.28;1.70;;;33.30;86.00;;;;;;5093540;28;20020;-66
2022/06/30 08:18:26;;;;;;;4.05;1.90;;;34.70;82.30;;;;;;5093441;28;20385;-67
2022/06/30 08:20:52;;;;;;;3.20;2.13;;;36.70;78.00;;;;;;5093782;28;20085;-67
2022/06/30 08:23:17;;;;;;;5.28;2.10;;;38.10;73.10;;;;;;5093019;28;20170;-68
2022/06/30 08:25:43;;;;;;;4.35;2.10;;;38.90;69.10;;;;;;5092744;28;20028;-68
2022/06/30 08:28:08;;;;;;;4.53;1.98;;;40.10;66.60;;;;;;5094109;28;20108;-69
2022/06/30 08:30:35;;;;;;;3.45;1.90;;;41.00;63.80;;;;;;5093029;28;20054;-67
2022/06/30 08:33:00;;;;;;;3.67;1.95;;;41.40;61.00;;;;;;5093275;28;20115;-68
2022/06/30 08:35:27;;;;;;;5.43;2.15;;;40.10;60.70;;;;;;5075247;28;20048;-69
2022/06/30 08:37:54;;;;;;;2.67;1.90;;;41.20;60.40;;;;;;5093620;28;20062;-68
2022/06/30 08:43:11;;;;;;;6.13;2.38;;;41.50;58.50;;;;;;5093612;28;20039;-67
2022/06/30 08:45:37;;;;;;;4.82;2.60;;;40.80;59.70;;;;;;5075048;28;20394;-67
2022/06/30 08:48:03;;;;;;;4.70;2.40;;;41.30;59.30;;;;;;5093115;28;20052;-68
2022/06/30 08:50:28;;;;;;;3.97;2.45;;;41.20;59.20;;;;;;5092681;28;20020;-69
2022/06/30 08:52:56;;;;;;;4.70;2.70;;;41.50;59.00;;;;;;5093282;28;20096;-68
2022/06/30 08:55:28;;;;;;;4.93;2.63;;;42.30;58.00;;;;;;5092655;28;20023;-69
2022/06/30 08:57:59;;;;;;;5.10;2.80;;;42.60;57.30;;;;;;5092934;28;20036;-68
2022/06/30 09:00:25;;;;;;;5.07;2.45;;;42.50;57.00;;;;;;5094603;28;20016;-67
2022/06/30 09:02:51;;;;;;;5.07;2.45;;;43.20;56.90;;;;;;5097009;28;20028;-67
2022/06/30 09:05:16;;;;;;;4.75;2.45;;;42.70;56.40;;;;;;5096696;28;20126;-68
2022/06/30 09:07:42;;;;;;;4.25;2.58;;;43.20;56.20;;;;;;5096888;28;20066;-68
2022/06/30 09:10:08;;;;;;;6.68;2.35;;;43.00;56.00;;;;;;5096978;28;20028;-68
2022/06/30 09:12:34;;;;;;;4.97;2.30;;;43.30;55.50;;;;;;5096864;28;20169;-68
2022/06/30 09:15:00;;;;;;;4.50;2.58;;;42.30;55.50;;;;;;5096779;28;20075;-67
2022/06/30 09:17:29;;;;;;;3.30;2.83;;;41.60;55.80;;;;;;5096697;28;20110;-67
2022/06/30 09:20:03;;;;;;;2.83;2.25;;;41.60;56.40;;;;;;5096987;28;20026;-67
2022/06/30 09:22:34;;;;;;;5.10;2.00;;;40.40;57.30;;;;;;5096763;28;20020;-67
2022/06/30 09:25:04;;;;;;;2.92;2.25;;;40.70;56.70;;;;;;5096121;28;20024;-68
2022/06/30 09:27:32;;;;;;;4.57;2.30;;;40.80;56.60;;;;;;5096517;28;20436;-67
2022/06/30 09:30:11;;;;;;;3.78;2.30;;;40.60;56.00;;;;;;5096131;28;20024;-68
2022/06/30 09:32:52;;;;;;;5.72;2.67;;;41.20;56.00;;;;;;5096209;28;20107;-67
2022/06/30 09:35:21;;;;;;;7.10;1.90;;;40.60;55.80;;;;;;5096094;28;20038;-67
2022/06/30 09:37:57;;;;;;;2.45;1.95;;;42.00;55.40;;;;;;5095981;28;20028;-67
2022/06/30 09:40:30;;;;;;;3.45;2.60;;;43.90;54.10;;;;;;5096062;28;20499;-68
2022/06/30 09:42:56;;;;;;;4.65;2.47;;;45.10;53.30;;;;;;5095801;28;20030;-68
2022/06/30 09:45:39;;;;;;;3.40;2.30;;;43.40;51.70;;;;;;5096173;28;20382;-68
2022/06/30 09:48:07;;;;;;;3.25;2.30;;;42.30;52.20;;;;;;5096215;28;20047;-68
2022/06/30 09:50:33;;;;;;;2.47;2.28;;;41.80;53.60;;;;;;5095816;28;20043;-68
2022/06/30 09:53:07;;;;;;;2.13;1.92;;;42.40;53.00;;;;;;5095662;28;20484;-68
2022/06/30 09:55:39;;;;;;;3.97;2.30;;;43.20;51.90;;;;;;5095680;28;20425;-68
2022/06/30 09:58:06;;;;;;;4.93;2.17;;;43.90;51.50;;;;;;5095521;28;20089;-68
2022/06/30 10:00:45;;;;;;;3.63;2.28;;;44.50;49.90;;;;;;5095699;28;20016;-68
2022/06/30 10:03:11;;;;;;;3.92;2.28;;;44.20;49.50;;;;;;5077388;28;20024;-68
2022/06/30 10:05:38;;;;;;;3.00;2.05;;;43.40;50.30;;;;;;5095090;28;20388;-68
2022/06/30 10:08:04;;;;;;;2.25;2.05;;;44.30;50.00;;;;;;5095264;28;20030;-68
2022/06/30 10:10:31;;;;;;;2.40;2.20;;;45.70;48.90;;;;;;5096285;28;20016;-68
2022/06/30 10:12:57;;;;;;;2.92;2.28;;;44.80;48.40;;;;;;5095090;28;20035;-68
2022/06/30 10:15:24;;;;;;;6.18;2.72;;;44.10;49.50;;;;;;5095342;28;20388;-68
2022/06/30 10:17:56;;;;;;;5.90;2.42;;;43.70;49.60;;;;;;5095105;28;20020;-68
2022/06/30 10:20:22;;;;;;;4.32;2.75;;;43.00;50.60;;;;;;5095312;28;20024;-68
2022/06/30 10:22:48;;;;;;;3.40;2.35;;;43.00;50.80;;;;;;5076740;28;20024;-68
2022/06/30 10:25:15;;;;;;;4.68;2.20;;;43.30;50.50;;;;;;5095210;28;20024;-68
2022/06/30 10:27:41;;;;;;;5.10;2.85;;;42.40;51.00;;;;;;5076787;28;20115;-68
2022/06/30 10:30:11;;;;;;;3.22;1.90;;;40.00;52.90;;;;;;5095726;28;20031;-68
2022/06/30 10:33:14;;;;;;;3.78;1.92;;;39.10;54.70;;;;;;5094978;28;20028;-68
2022/06/30 10:35:45;;;;;;;4.22;2.15;;;39.90;54.00;;;;;;5076712;28;20169;-69
2022/06/30 10:38:25;;;;;;;3.70;2.33;;;41.60;52.70;;;;;;5094944;28;20028;-68
2022/06/30 10:41:03;;;;;;;2.70;2.22;;;42.90;50.90;;;;;;5094930;28;20037;-68
2022/06/30 10:43:29;;;;;;;3.45;2.20;;;43.80;50.50;;;;;;5094858;28;20031;-68
2022/06/30 10:45:58;;;;;;;3.38;2.60;;;43.80;50.10;;;;;;5094614;28;20021;-68
2022/06/30 10:48:27;;;;;;;4.85;2.47;;;43.10;50.70;;;;;;5076265;28;20024;-68
2022/06/30 10:50:53;;;;;;;3.25;2.33;;;43.80;50.40;;;;;;5094798;28;20532;-67
2022/06/30 10:53:37;;;;;;;4.70;2.35;;;43.30;50.70;;;;;;5094484;28;20020;-68
2022/06/30 10:56:03;;;;;;;3.60;2.30;;;43.10;50.50;;;;;;5094501;28;20152;-68
2022/06/30 10:58:28;;;;;;;3.03;2.25;;;41.80;51.50;;;;;;5094276;28;20421;-67
2022/06/30 11:01:04;;;;;;;3.25;2.05;;;41.50;52.50;;;;;;5094503;28;20031;-68
2022/06/30 11:03:30;;;;;;;5.30;2.50;;;40.20;51.90;;;;;;5094491;28;20020;-67
2022/06/30 11:05:57;;;;;;;5.93;2.65;;;39.20;52.90;;;;;;5076089;28;20031;-67
2022/06/30 11:08:48;;;;;;;3.97;2.30;;;39.10;53.20;;;;;;5094563;28;20120;-67
2022/06/30 11:11:22;;;;;;;6.53;2.30;;;37.80;54.00;;;;;;5094493;28;20028;-67
2022/06/30 11:14:00;;;;;;;8.38;2.40;;;38.20;53.90;;;;;;5094412;28;20032;-68
2022/06/30 11:16:25;;;;;;;4.72;2.50;;;37.80;54.50;;;;;;5094057;28;20119;-67
2022/06/30 11:18:51;;;;;;;5.38;2.10;;;37.40;55.10;;;;;;5094094;28;20111;-67
2022/06/30 11:21:17;;;;;;;3.70;2.25;;;36.70;56.00;;;;;;5094200;28;20138;-67
2022/06/30 11:23:48;;;;;;;4.70;2.47;;;35.70;57.40;;;;;;5093413;28;20189;-66
2022/06/30 11:29:01;;;;;;;4.43;2.45;;;33.90;59.60;;;;;;5094006;28;20162;-67
2022/06/30 11:31:33;;;;;;;5.78;2.60;;;33.80;60.10;;;;;;5093902;28;20035;-68
2022/06/30 11:34:08;;;;;;;3.28;2.10;;;33.80;60.30;;;;;;5094049;28;20032;-67
2022/06/30 11:36:36;;;;;;;3.35;2.10;;;33.60;60.10;;;;;;5093686;28;20500;-67
2022/06/30 11:39:11;;;;;;;3.67;2.20;;;33.00;61.00;;;;;;5093845;28;20067;-67
2022/06/30 11:41:55;;;;;;;7.47;2.75;;;33.00;62.10;;;;;;5093882;28;20020;-67
2022/06/30 11:44:34;;;;;;;3.90;2.70;;;32.80;62.50;;;;;;5094340;28;20399;-66
2022/06/30 11:47:00;;;;;;;6.28;4.45;;;32.80;62.20;;;;;;5093949;28;20361;-66
2022/06/30 11:49:37;;;;;;;4.78;3.17;;;32.70;62.70;;;;;;5093725;28;20321;-67
2022/06/30 11:52:16;;;;;;;4.20;3.17;;;32.70;62.80;;;;;;5093785;28;20048;-67
2022/06/30 11:54:53;;;;;;;4.95;2.92;;;32.50;61.70;;;;;;5093684;28;20035;-66
2022/06/30 11:57:25;;;;;;;4.22;2.63;;;32.30;62.20;;;;;;5093704;28;20020;-66
2022/06/30 11:59:56;;;;;;;3.47;2.42;;;32.00;62.90;;;;;;5093600;28;20027;-67
2022/06/30 12:02:21;;;;;;;4.65;2.33;;;31.90;62.60;;;;;;5094000;28;20016;-67
2022/06/30 12:04:52;;;;;;;3.53;2.63;;;32.00;63.00;;;;;;5093533;28;20499;-67
2022/06/30 12:07:18;;;;;;;5.13;2.53;;;32.20;63.20;;;;;;5093278;28;20126;-67
2022/06/30 12:09:45;;;;;;;4.35;2.83;;;32.20;63.30;;;;;;5093276;28;20023;-67
2022/06/30 12:12:17;;;;;;;4.18;2.58;;;32.30;63.30;;;;;;5075275;28;20020;-66
2022/06/30 12:14:46;;;;;;;3.65;2.38;;;32.10;63.00;;;;;;5094536;28;20453;-65
2022/06/30 12:17:13;;;;;;;4.43;2.67;;;31.80;63.50;;;;;;5093440;28;20028;-67
2022/06/30 12:19:41;;;;;;;4.95;2.70;;;31.80;63.30;;;;;;5093411;28;20085;-66
2022/06/30 12:22:08;;;;;;;2.72;2.47;;;31.70;63.50;;;;;;5093365;28;20023;-65
2022/06/30 12:24:36;;;;;;;4.93;2.67;;;31.70;63.20;;;;;;5095222;28;20058;-65
2022/06/30 12:27:01;;;;;;;4.03;2.45;;;31.50;63.40;;;;;;5095539;28;20024;-66
2022/06/30 12:29:28;;;;;;;3.70;2.42;;;31.50;63.30;;;;;;5095712;28;20023;-66
2022/06/30 12:32:10;;;;;;;3.20;2.28;;;31.40;63.60;;;;;;5095307;28;20043;-66
2022/06/30 12:34:56;;;;;;;5.68;2.60;;;31.60;63.70;;;;;;5094688;28;20023;-65
2022/06/30 12:37:29;;;;;;;5.65;3.00;;;31.50;64.00;;;;;;5097845;28;20059;-66
2022/06/30 12:39:57;;;;;;;4.00;2.70;;;31.40;63.40;;;;;;5097319;28;20069;-65
2022/06/30 12:42:23;;;;;;;4.63;3.17;;;31.40;63.70;;;;;;5079037;28;20081;-66
2022/06/30 12:44:49;;;;;;;6.93;2.63;;;31.50;64.00;;;;;;5097473;28;20024;-65
2022/06/30 12:47:15;;;;;;;8.00;2.60;;;31.50;64.00;;;;;;5097295;28;20020;-66
2022/06/30 12:49:42;;;;;;;3.40;2.67;;;31.40;64.00;;;;;;5096852;28;20016;-66
2022/06/30 12:52:15;;;;;;;4.43;3.22;;;31.40;63.80;;;;;;5078698;28;20032;-65
2022/06/30 12:54:55;;;;;;;5.90;2.67;;;31.50;64.20;;;;;;5096829;28;20016;-65
2022/06/30 12:57:21;;;;;;;8.40;5.30;;;31.60;63.80;;;;;;5096825;28;20050;-67
2022/06/30 12:59:51;;;;;;;3.25;2.63;;;31.60;63.80;;;;;;5097247;28;20028;-65
2022/06/30 13:02:17;;;;;;;4.10;2.45;;;31.60;63.30;;;;;;5097267;28;20499;-66
2022/06/30 13:04:55;;;;;;;4.63;2.53;;;31.60;63.10;;;;;;5078383;28;20116;-65